sensor_id;sensor_type;location;lat;lon;timestamp;temperature;humidity
62464;SHT31;48512;48.552;9.380;2023-02-19T00:00:53;11.10;76.98
62464;SHT31;48512;48.552;9.380;2023-02-19T00:03:18;11.12;76.96
62464;SHT31;48512;48.552;9.380;2023-02-19T00:05:43;11.03;77.34
62464;SHT31;48512;48.552;9.380;2023-02-19T00:08:09;11.07;77.16
62464;SHT31;48512;48.552;9.380;2023-02-19T00:10:37;11.00;77.44
62464;SHT31;48512;48.552;9.380;2023-02-19T00:13:02;10.98;77.31
62464;SHT31;48512;48.552;9.380;2023-02-19T00:15:31;11.07;77.38
62464;SHT31;48512;48.552;9.380;2023-02-19T00:17:56;11.00;77.36
62464;SHT31;48512;48.552;9.380;2023-02-19T00:20:22;11.22;76.95
62464;SHT31;48512;48.552;9.380;2023-02-19T00:22:47;11.32;76.36
62464;SHT31;48512;48.552;9.380;2023-02-19T00:25:13;11.08;77.11
62464;SHT31;48512;48.552;9.380;2023-02-19T00:27:38;11.04;77.41
62464;SHT31;48512;48.552;9.380;2023-02-19T00:30:04;10.94;77.62
62464;SHT31;48512;48.552;9.380;2023-02-19T00:32:29;11.12;77.19
62464;SHT31;48512;48.552;9.380;2023-02-19T00:34:55;10.96;77.66
62464;SHT31;48512;48.552;9.380;2023-02-19T00:37:20;10.97;77.80
62464;SHT31;48512;48.552;9.380;2023-02-19T00:39:45;11.03;77.47
62464;SHT31;48512;48.552;9.380;2023-02-19T00:42:11;11.00;77.68
62464;SHT31;48512;48.552;9.380;2023-02-19T00:44:36;11.06;77.45
62464;SHT31;48512;48.552;9.380;2023-02-19T00:47:01;10.98;77.73
62464;SHT31;48512;48.552;9.380;2023-02-19T00:49:27;10.93;78.09
62464;SHT31;48512;48.552;9.380;2023-02-19T00:51:52;10.96;77.97
62464;SHT31;48512;48.552;9.380;2023-02-19T00:54:18;10.89;78.25
62464;SHT31;48512;48.552;9.380;2023-02-19T00:56:43;11.07;77.70
62464;SHT31;48512;48.552;9.380;2023-02-19T00:59:09;11.10;77.56
62464;SHT31;48512;48.552;9.380;2023-02-19T01:01:34;11.07;77.27
62464;SHT31;48512;48.552;9.380;2023-02-19T01:04:00;11.00;77.87
62464;SHT31;48512;48.552;9.380;2023-02-19T01:06:25;10.93;77.93
62464;SHT31;48512;48.552;9.380;2023-02-19T01:08:54;11.03;77.83
62464;SHT31;48512;48.552;9.380;2023-02-19T01:11:20;11.18;77.07
62464;SHT31;48512;48.552;9.380;2023-02-19T01:13:45;11.15;76.99
62464;SHT31;48512;48.552;9.380;2023-02-19T01:18:41;11.08;77.26
62464;SHT31;48512;48.552;9.380;2023-02-19T01:21:14;11.06;77.46
62464;SHT31;48512;48.552;9.380;2023-02-19T01:23:41;11.06;77.46
62464;SHT31;48512;48.552;9.380;2023-02-19T01:26:08;11.08;77.20
62464;SHT31;48512;48.552;9.380;2023-02-19T01:28:35;11.40;76.23
62464;SHT31;48512;48.552;9.380;2023-02-19T01:31:02;11.21;76.85
62464;SHT31;48512;48.552;9.380;2023-02-19T01:33:29;11.24;76.76
62464;SHT31;48512;48.552;9.380;2023-02-19T01:35:54;11.18;76.78
62464;SHT31;48512;48.552;9.380;2023-02-19T01:38:20;11.14;76.97
62464;SHT31;48512;48.552;9.380;2023-02-19T01:40:56;11.15;77.07
62464;SHT31;48512;48.552;9.380;2023-02-19T01:43:21;11.08;77.06
62464;SHT31;48512;48.552;9.380;2023-02-19T01:45:47;11.14;77.08
62464;SHT31;48512;48.552;9.380;2023-02-19T01:48:23;11.29;76.68
62464;SHT31;48512;48.552;9.380;2023-02-19T01:50:52;11.18;76.87
62464;SHT31;48512;48.552;9.380;2023-02-19T01:53:21;11.06;77.02
62464;SHT31;48512;48.552;9.380;2023-02-19T01:55:51;11.19;76.82
62464;SHT31;48512;48.552;9.380;2023-02-19T01:58:18;11.21;76.80
62464;SHT31;48512;48.552;9.380;2023-02-19T02:00:44;11.34;75.93
62464;SHT31;48512;48.552;9.380;2023-02-19T02:03:09;11.21;76.37
62464;SHT31;48512;48.552;9.380;2023-02-19T02:08:33;11.31;76.29
62464;SHT31;48512;48.552;9.380;2023-02-19T02:11:18;11.27;76.07
62464;SHT31;48512;48.552;9.380;2023-02-19T02:13:44;11.15;76.51
62464;SHT31;48512;48.552;9.380;2023-02-19T02:19:08;11.18;76.72
62464;SHT31;48512;48.552;9.380;2023-02-19T02:22:05;11.24;76.35
62464;SHT31;48512;48.552;9.380;2023-02-19T02:27:48;11.21;75.78
62464;SHT31;48512;48.552;9.380;2023-02-19T02:35:22;11.31;75.66
62464;SHT31;48512;48.552;9.380;2023-02-19T02:37:52;11.21;75.56
62464;SHT31;48512;48.552;9.380;2023-02-19T02:40:20;11.25;75.62
62464;SHT31;48512;48.552;9.380;2023-02-19T02:42:46;11.19;75.75
62464;SHT31;48512;48.552;9.380;2023-02-19T02:48:33;11.11;76.30
62464;SHT31;48512;48.552;9.380;2023-02-19T02:54:21;11.10;75.72
62464;SHT31;48512;48.552;9.380;2023-02-19T02:56:38;11.25;75.14
62464;SHT31;48512;48.552;9.380;2023-02-19T02:59:07;11.14;75.50
62464;SHT31;48512;48.552;9.380;2023-02-19T03:01:38;10.93;76.25
62464;SHT31;48512;48.552;9.380;2023-02-19T03:06:55;11.12;75.17
62464;SHT31;48512;48.552;9.380;2023-02-19T03:09:30;11.04;75.66
62464;SHT31;48512;48.552;9.380;2023-02-19T03:11:59;11.31;74.71
62464;SHT31;48512;48.552;9.380;2023-02-19T03:14:48;11.07;75.22
62464;SHT31;48512;48.552;9.380;2023-02-19T03:17:37;11.03;75.32
62464;SHT31;48512;48.552;9.380;2023-02-19T03:20:23;11.01;75.19
62464;SHT31;48512;48.552;9.380;2023-02-19T03:22:51;10.96;75.20
62464;SHT31;48512;48.552;9.380;2023-02-19T03:25:23;11.11;74.44
62464;SHT31;48512;48.552;9.380;2023-02-19T03:28:09;11.12;74.22
62464;SHT31;48512;48.552;9.380;2023-02-19T03:30:39;10.97;74.39
62464;SHT31;48512;48.552;9.380;2023-02-19T03:33:09;11.04;73.67
62464;SHT31;48512;48.552;9.380;2023-02-19T03:35:41;10.96;73.98
62464;SHT31;48512;48.552;9.380;2023-02-19T03:38:15;10.94;74.09
62464;SHT31;48512;48.552;9.380;2023-02-19T03:41:06;10.97;73.95
62464;SHT31;48512;48.552;9.380;2023-02-19T03:43:40;10.84;74.51
62464;SHT31;48512;48.552;9.380;2023-02-19T03:46:12;11.03;74.27
62464;SHT31;48512;48.552;9.380;2023-02-19T04:00:41;10.85;76.30
62464;SHT31;48512;48.552;9.380;2023-02-19T04:06:13;10.66;77.83
62464;SHT31;48512;48.552;9.380;2023-02-19T04:08:44;10.63;77.68
62464;SHT31;48512;48.552;9.380;2023-02-19T04:11:10;10.52;78.17
62464;SHT31;48512;48.552;9.380;2023-02-19T04:13:41;10.77;77.34
62464;SHT31;48512;48.552;9.380;2023-02-19T04:16:13;10.43;78.25
62464;SHT31;48512;48.552;9.380;2023-02-19T04:18:43;10.49;78.57
62464;SHT31;48512;48.552;9.380;2023-02-19T04:21:09;10.42;78.61
62464;SHT31;48512;48.552;9.380;2023-02-19T04:23:38;10.35;78.93
62464;SHT31;48512;48.552;9.380;2023-02-19T04:26:05;10.15;80.14
62464;SHT31;48512;48.552;9.380;2023-02-19T04:28:32;10.33;79.35
62464;SHT31;48512;48.552;9.380;2023-02-19T04:30:58;10.38;78.82
62464;SHT31;48512;48.552;9.380;2023-02-19T04:33:23;10.36;78.42
62464;SHT31;48512;48.552;9.380;2023-02-19T04:35:49;10.39;78.19
62464;SHT31;48512;48.552;9.380;2023-02-19T04:38:14;10.50;77.99
62464;SHT31;48512;48.552;9.380;2023-02-19T04:40:39;10.46;77.91
62464;SHT31;48512;48.552;9.380;2023-02-19T04:43:05;10.48;77.73
62464;SHT31;48512;48.552;9.380;2023-02-19T04:45:30;10.38;77.82
62464;SHT31;48512;48.552;9.380;2023-02-19T04:47:59;10.55;77.60
62464;SHT31;48512;48.552;9.380;2023-02-19T04:50:24;10.49;77.78
62464;SHT31;48512;48.552;9.380;2023-02-19T04:52:50;10.35;78.52
62464;SHT31;48512;48.552;9.380;2023-02-19T04:55:16;10.32;78.63
62464;SHT31;48512;48.552;9.380;2023-02-19T04:57:41;10.32;78.25
62464;SHT31;48512;48.552;9.380;2023-02-19T05:00:07;10.22;78.66
62464;SHT31;48512;48.552;9.380;2023-02-19T05:02:33;10.29;78.12
62464;SHT31;48512;48.552;9.380;2023-02-19T05:04:58;10.31;78.66
62464;SHT31;48512;48.552;9.380;2023-02-19T05:07:24;10.24;79.28
62464;SHT31;48512;48.552;9.380;2023-02-19T05:09:49;10.08;80.55
62464;SHT31;48512;48.552;9.380;2023-02-19T05:12:15;10.11;81.13
62464;SHT31;48512;48.552;9.380;2023-02-19T05:14:40;10.12;81.50
62464;SHT31;48512;48.552;9.380;2023-02-19T05:17:05;10.14;81.94
62464;SHT31;48512;48.552;9.380;2023-02-19T05:19:31;10.14;81.72
62464;SHT31;48512;48.552;9.380;2023-02-19T05:21:56;9.88;82.33
62464;SHT31;48512;48.552;9.380;2023-02-19T05:24:21;10.11;81.62
62464;SHT31;48512;48.552;9.380;2023-02-19T05:26:48;9.85;82.70
62464;SHT31;48512;48.552;9.380;2023-02-19T05:29:14;9.95;82.09
62464;SHT31;48512;48.552;9.380;2023-02-19T05:31:40;9.93;81.78
62464;SHT31;48512;48.552;9.380;2023-02-19T05:34:05;9.87;81.99
62464;SHT31;48512;48.552;9.380;2023-02-19T05:36:31;9.97;81.85
62464;SHT31;48512;48.552;9.380;2023-02-19T05:38:57;9.87;81.28
62464;SHT31;48512;48.552;9.380;2023-02-19T05:41:25;9.94;81.04
62464;SHT31;48512;48.552;9.380;2023-02-19T05:43:51;9.94;81.09
62464;SHT31;48512;48.552;9.380;2023-02-19T05:46:19;9.97;80.99
62464;SHT31;48512;48.552;9.380;2023-02-19T05:48:48;9.91;80.84
62464;SHT31;48512;48.552;9.380;2023-02-19T05:51:17;9.97;80.94
62464;SHT31;48512;48.552;9.380;2023-02-19T05:53:43;9.97;80.45
62464;SHT31;48512;48.552;9.380;2023-02-19T05:56:38;9.97;80.31
62464;SHT31;48512;48.552;9.380;2023-02-19T05:59:14;9.87;80.63
62464;SHT31;48512;48.552;9.380;2023-02-19T06:01:41;9.99;79.89
62464;SHT31;48512;48.552;9.380;2023-02-19T06:04:08;9.97;79.63
62464;SHT31;48512;48.552;9.380;2023-02-19T06:06:33;10.12;79.38
62464;SHT31;48512;48.552;9.380;2023-02-19T06:08:59;9.99;79.97
62464;SHT31;48512;48.552;9.380;2023-02-19T06:11:24;10.02;79.89
62464;SHT31;48512;48.552;9.380;2023-02-19T06:13:50;9.99;79.74
62464;SHT31;48512;48.552;9.380;2023-02-19T06:16:16;10.02;79.50
62464;SHT31;48512;48.552;9.380;2023-02-19T06:18:42;10.02;79.35
62464;SHT31;48512;48.552;9.380;2023-02-19T06:21:09;9.98;79.27
62464;SHT31;48512;48.552;9.380;2023-02-19T06:23:35;9.90;79.92
62464;SHT31;48512;48.552;9.380;2023-02-19T06:28:40;10.04;78.78
62464;SHT31;48512;48.552;9.380;2023-02-19T06:31:07;9.99;79.16
62464;SHT31;48512;48.552;9.380;2023-02-19T06:33:34;9.99;79.40
62464;SHT31;48512;48.552;9.380;2023-02-19T06:36:01;9.94;79.32
62464;SHT31;48512;48.552;9.380;2023-02-19T06:38:28;10.02;79.09
62464;SHT31;48512;48.552;9.380;2023-02-19T06:40:53;9.87;79.74
62464;SHT31;48512;48.552;9.380;2023-02-19T06:43:19;9.87;80.04
62464;SHT31;48512;48.552;9.380;2023-02-19T06:45:44;9.94;80.71
62464;SHT31;48512;48.552;9.380;2023-02-19T06:48:10;9.97;80.52
62464;SHT31;48512;48.552;9.380;2023-02-19T06:50:35;9.93;80.60
62464;SHT31;48512;48.552;9.380;2023-02-19T06:53:01;9.93;80.78
62464;SHT31;48512;48.552;9.380;2023-02-19T06:55:26;9.93;80.72
62464;SHT31;48512;48.552;9.380;2023-02-19T06:57:51;9.91;81.49
62464;SHT31;48512;48.552;9.380;2023-02-19T07:00:17;9.87;82.40
62464;SHT31;48512;48.552;9.380;2023-02-19T07:02:43;9.84;83.27
62464;SHT31;48512;48.552;9.380;2023-02-19T07:05:08;9.73;82.93
62464;SHT31;48512;48.552;9.380;2023-02-19T07:07:33;9.46;84.44
62464;SHT31;48512;48.552;9.380;2023-02-19T07:09:59;9.33;85.90
62464;SHT31;48512;48.552;9.380;2023-02-19T07:12:24;9.28;85.35
62464;SHT31;48512;48.552;9.380;2023-02-19T07:14:49;9.46;84.45
62464;SHT31;48512;48.552;9.380;2023-02-19T07:17:15;9.40;84.78
62464;SHT31;48512;48.552;9.380;2023-02-19T07:19:40;9.42;84.10
62464;SHT31;48512;48.552;9.380;2023-02-19T07:22:05;9.43;84.61
62464;SHT31;48512;48.552;9.380;2023-02-19T07:24:31;9.46;84.47
62464;SHT31;48512;48.552;9.380;2023-02-19T07:26:56;9.43;83.12
62464;SHT31;48512;48.552;9.380;2023-02-19T07:29:22;9.43;83.86
62464;SHT31;48512;48.552;9.380;2023-02-19T07:31:47;9.42;82.45
62464;SHT31;48512;48.552;9.380;2023-02-19T07:34:12;9.38;81.13
62464;SHT31;48512;48.552;9.380;2023-02-19T07:36:38;9.47;81.43
62464;SHT31;48512;48.552;9.380;2023-02-19T07:39:04;9.70;78.77
62464;SHT31;48512;48.552;9.380;2023-02-19T07:41:29;9.58;80.18
62464;SHT31;48512;48.552;9.380;2023-02-19T07:43:54;9.49;81.66
62464;SHT31;48512;48.552;9.380;2023-02-19T07:46:20;9.40;80.53
62464;SHT31;48512;48.552;9.380;2023-02-19T07:48:46;9.58;79.52
62464;SHT31;48512;48.552;9.380;2023-02-19T07:51:16;9.63;79.03
62464;SHT31;48512;48.552;9.380;2023-02-19T07:53:46;9.60;79.00
62464;SHT31;48512;48.552;9.380;2023-02-19T07:56:12;9.60;79.10
62464;SHT31;48512;48.552;9.380;2023-02-19T07:58:38;9.53;78.61
62464;SHT31;48512;48.552;9.380;2023-02-19T08:01:13;9.58;78.69
62464;SHT31;48512;48.552;9.380;2023-02-19T08:03:39;9.80;78.05
62464;SHT31;48512;48.552;9.380;2023-02-19T08:06:05;9.64;78.73
62464;SHT31;48512;48.552;9.380;2023-02-19T08:08:30;9.56;79.04
62464;SHT31;48512;48.552;9.380;2023-02-19T08:10:59;9.60;79.72
62464;SHT31;48512;48.552;9.380;2023-02-19T08:13:43;9.53;79.47
62464;SHT31;48512;48.552;9.380;2023-02-19T08:16:11;9.44;79.62
62464;SHT31;48512;48.552;9.380;2023-02-19T08:18:37;9.43;79.36
62464;SHT31;48512;48.552;9.380;2023-02-19T08:21:03;9.44;79.80
62464;SHT31;48512;48.552;9.380;2023-02-19T08:23:28;9.64;79.04
62464;SHT31;48512;48.552;9.380;2023-02-19T08:25:58;9.63;77.84
62464;SHT31;48512;48.552;9.380;2023-02-19T08:28:23;9.50;78.67
62464;SHT31;48512;48.552;9.380;2023-02-19T08:30:49;9.57;78.92
62464;SHT31;48512;48.552;9.380;2023-02-19T08:33:16;9.47;78.74
62464;SHT31;48512;48.552;9.380;2023-02-19T08:35:43;9.50;79.30
62464;SHT31;48512;48.552;9.380;2023-02-19T08:38:10;9.60;79.60
62464;SHT31;48512;48.552;9.380;2023-02-19T08:40:37;9.56;78.96
62464;SHT31;48512;48.552;9.380;2023-02-19T08:43:11;9.51;79.92
62464;SHT31;48512;48.552;9.380;2023-02-19T08:45:39;9.46;80.47
62464;SHT31;48512;48.552;9.380;2023-02-19T08:48:05;9.50;79.82
62464;SHT31;48512;48.552;9.380;2023-02-19T08:50:30;9.69;79.87
62464;SHT31;48512;48.552;9.380;2023-02-19T08:52:58;9.60;79.55
62464;SHT31;48512;48.552;9.380;2023-02-19T08:55:24;9.49;79.93
62464;SHT31;48512;48.552;9.380;2023-02-19T08:57:49;9.35;80.43
62464;SHT31;48512;48.552;9.380;2023-02-19T09:00:15;9.60;78.48
62464;SHT31;48512;48.552;9.380;2023-02-19T09:02:40;9.49;79.48
62464;SHT31;48512;48.552;9.380;2023-02-19T09:05:06;9.47;79.37
62464;SHT31;48512;48.552;9.380;2023-02-19T09:07:31;9.44;79.39
62464;SHT31;48512;48.552;9.380;2023-02-19T09:09:57;9.70;78.79
62464;SHT31;48512;48.552;9.380;2023-02-19T09:12:23;9.56;79.34
62464;SHT31;48512;48.552;9.380;2023-02-19T09:14:49;9.57;78.74
62464;SHT31;48512;48.552;9.380;2023-02-19T09:17:14;9.61;78.75
62464;SHT31;48512;48.552;9.380;2023-02-19T09:19:40;9.60;79.36
62464;SHT31;48512;48.552;9.380;2023-02-19T09:22:05;9.64;78.28
62464;SHT31;48512;48.552;9.380;2023-02-19T09:24:31;9.63;77.59
62464;SHT31;48512;48.552;9.380;2023-02-19T09:26:56;9.63;78.23
62464;SHT31;48512;48.552;9.380;2023-02-19T09:29:26;9.70;77.41
62464;SHT31;48512;48.552;9.380;2023-02-19T09:31:56;9.83;76.66
62464;SHT31;48512;48.552;9.380;2023-02-19T09:34:23;9.73;77.27
62464;SHT31;48512;48.552;9.380;2023-02-19T09:36:48;9.70;77.18
62464;SHT31;48512;48.552;9.380;2023-02-19T09:39:14;9.77;77.14
62464;SHT31;48512;48.552;9.380;2023-02-19T09:41:48;9.87;76.54
62464;SHT31;48512;48.552;9.380;2023-02-19T09:44:23;9.58;77.29
62464;SHT31;48512;48.552;9.380;2023-02-19T09:46:52;9.57;77.75
62464;SHT31;48512;48.552;9.380;2023-02-19T09:49:23;9.67;78.92
62464;SHT31;48512;48.552;9.380;2023-02-19T09:54:33;9.83;78.78
62464;SHT31;48512;48.552;9.380;2023-02-19T09:57:01;9.83;78.72
62464;SHT31;48512;48.552;9.380;2023-02-19T09:59:32;9.76;79.16
62464;SHT31;48512;48.552;9.380;2023-02-19T10:02:11;9.78;78.92
62464;SHT31;48512;48.552;9.380;2023-02-19T10:04:41;9.61;80.28
62464;SHT31;48512;48.552;9.380;2023-02-19T10:07:15;9.73;79.86
62464;SHT31;48512;48.552;9.380;2023-02-19T10:09:42;10.09;79.08
62464;SHT31;48512;48.552;9.380;2023-02-19T10:12:23;10.12;80.00
62464;SHT31;48512;48.552;9.380;2023-02-19T10:14:50;9.99;80.77
62464;SHT31;48512;48.552;9.380;2023-02-19T10:17:24;10.06;80.98
62464;SHT31;48512;48.552;9.380;2023-02-19T10:19:51;10.01;80.75
62464;SHT31;48512;48.552;9.380;2023-02-19T10:22:20;10.05;79.89
62464;SHT31;48512;48.552;9.380;2023-02-19T10:24:49;10.01;80.64
62464;SHT31;48512;48.552;9.380;2023-02-19T10:27:16;10.08;80.69
62464;SHT31;48512;48.552;9.380;2023-02-19T10:29:42;10.14;79.76
62464;SHT31;48512;48.552;9.380;2023-02-19T10:34:37;10.32;78.12
62464;SHT31;48512;48.552;9.380;2023-02-19T10:37:02;10.39;77.74
62464;SHT31;48512;48.552;9.380;2023-02-19T10:39:38;10.57;77.34
62464;SHT31;48512;48.552;9.380;2023-02-19T10:42:13;10.67;76.59
62464;SHT31;48512;48.552;9.380;2023-02-19T10:44:43;10.81;76.95
62464;SHT31;48512;48.552;9.380;2023-02-19T10:47:16;11.07;76.37
62464;SHT31;48512;48.552;9.380;2023-02-19T10:49:42;11.86;74.38
62464;SHT31;48512;48.552;9.380;2023-02-19T10:52:21;11.51;74.03
62464;SHT31;48512;48.552;9.380;2023-02-19T10:55:23;11.42;74.65
62464;SHT31;48512;48.552;9.380;2023-02-19T10:57:48;11.40;74.32
62464;SHT31;48512;48.552;9.380;2023-02-19T11:02:41;11.11;74.50
62464;SHT31;48512;48.552;9.380;2023-02-19T11:07:56;10.90;75.52
62464;SHT31;48512;48.552;9.380;2023-02-19T11:10:33;11.15;72.20
62464;SHT31;48512;48.552;9.380;2023-02-19T11:13:02;11.15;73.15
62464;SHT31;48512;48.552;9.380;2023-02-19T11:15:31;11.51;71.65
62464;SHT31;48512;48.552;9.380;2023-02-19T11:18:24;11.77;70.42
62464;SHT31;48512;48.552;9.380;2023-02-19T11:20:53;11.65;70.25
62464;SHT31;48512;48.552;9.380;2023-02-19T11:23:33;11.19;71.33
62464;SHT31;48512;48.552;9.380;2023-02-19T11:26:02;11.10;72.29
62464;SHT31;48512;48.552;9.380;2023-02-19T11:28:40;10.93;72.41
62464;SHT31;48512;48.552;9.380;2023-02-19T11:33:44;10.85;72.42
62464;SHT31;48512;48.552;9.380;2023-02-19T11:38:48;10.80;72.69
62464;SHT31;48512;48.552;9.380;2023-02-19T11:41:56;10.74;73.55
62464;SHT31;48512;48.552;9.380;2023-02-19T11:44:37;10.93;71.62
62464;SHT31;48512;48.552;9.380;2023-02-19T11:56:16;10.77;73.06
62464;SHT31;48512;48.552;9.380;2023-02-19T11:58:58;10.77;71.15
62464;SHT31;48512;48.552;9.380;2023-02-19T12:09:40;10.91;69.94
62464;SHT31;48512;48.552;9.380;2023-02-19T12:18:03;10.93;68.73
62464;SHT31;48512;48.552;9.380;2023-02-19T12:21:09;10.83;69.34
62464;SHT31;48512;48.552;9.380;2023-02-19T12:43:30;11.22;65.69
62464;SHT31;48512;48.552;9.380;2023-02-19T12:45:38;11.73;63.92
62464;SHT31;48512;48.552;9.380;2023-02-19T12:48:07;11.39;63.89
62464;SHT31;48512;48.552;9.380;2023-02-19T12:50:36;11.34;64.73
62464;SHT31;48512;48.552;9.380;2023-02-19T12:56:25;11.39;62.88
62464;SHT31;48512;48.552;9.380;2023-02-19T12:59:07;11.51;62.65
62464;SHT31;48512;48.552;9.380;2023-02-19T13:01:44;11.52;63.09
62464;SHT31;48512;48.552;9.380;2023-02-19T13:07:16;12.17;62.31
62464;SHT31;48512;48.552;9.380;2023-02-19T13:09:55;12.04;62.11
62464;SHT31;48512;48.552;9.380;2023-02-19T13:15:17;12.10;62.44
62464;SHT31;48512;48.552;9.380;2023-02-19T13:20:25;12.38;62.03
62464;SHT31;48512;48.552;9.380;2023-02-19T13:26:41;12.95;60.61
62464;SHT31;48512;48.552;9.380;2023-02-19T13:35:24;12.52;61.70
62464;SHT31;48512;48.552;9.380;2023-02-19T13:37:50;12.58;61.40
62464;SHT31;48512;48.552;9.380;2023-02-19T13:42:57;12.55;61.22
62464;SHT31;48512;48.552;9.380;2023-02-19T13:45:36;12.56;61.97
62464;SHT31;48512;48.552;9.380;2023-02-19T13:48:44;12.72;62.61
62464;SHT31;48512;48.552;9.380;2023-02-19T14:28:34;12.16;60.80
62464;SHT31;48512;48.552;9.380;2023-02-19T14:33:55;12.03;61.40
62464;SHT31;48512;48.552;9.380;2023-02-19T14:36:41;12.03;61.26
62464;SHT31;48512;48.552;9.380;2023-02-19T14:41:41;12.03;61.37
62464;SHT31;48512;48.552;9.380;2023-02-19T14:44:15;11.79;61.99
62464;SHT31;48512;48.552;9.380;2023-02-19T14:46:50;11.70;62.77
62464;SHT31;48512;48.552;9.380;2023-02-19T14:51:50;11.65;63.31
62464;SHT31;48512;48.552;9.380;2023-02-19T14:54:19;11.67;63.10
62464;SHT31;48512;48.552;9.380;2023-02-19T14:56:47;11.86;62.96
62464;SHT31;48512;48.552;9.380;2023-02-19T14:59:26;11.63;63.23
62464;SHT31;48512;48.552;9.380;2023-02-19T15:02:40;11.42;64.65
62464;SHT31;48512;48.552;9.380;2023-02-19T15:04:42;11.55;64.01
62464;SHT31;48512;48.552;9.380;2023-02-19T15:07:12;11.24;65.47
62464;SHT31;48512;48.552;9.380;2023-02-19T15:09:42;11.10;66.23
62464;SHT31;48512;48.552;9.380;2023-02-19T15:12:19;11.18;66.62
62464;SHT31;48512;48.552;9.380;2023-02-19T15:14:47;11.28;66.36
62464;SHT31;48512;48.552;9.380;2023-02-19T15:17:20;11.25;66.98
62464;SHT31;48512;48.552;9.380;2023-02-19T15:19:46;11.39;66.58
62464;SHT31;48512;48.552;9.380;2023-02-19T15:22:19;11.24;66.66
62464;SHT31;48512;48.552;9.380;2023-02-19T15:24:45;11.19;67.07
62464;SHT31;48512;48.552;9.380;2023-02-19T15:27:19;11.03;67.75
62464;SHT31;48512;48.552;9.380;2023-02-19T15:29:46;11.00;67.74
62464;SHT31;48512;48.552;9.380;2023-02-19T15:32:18;10.94;68.17
62464;SHT31;48512;48.552;9.380;2023-02-19T15:34:58;10.83;68.56
62464;SHT31;48512;48.552;9.380;2023-02-19T15:37:32;10.73;68.17
62464;SHT31;48512;48.552;9.380;2023-02-19T15:40:04;10.73;68.29
62464;SHT31;48512;48.552;9.380;2023-02-19T15:42:33;10.76;68.82
62464;SHT31;48512;48.552;9.380;2023-02-19T15:47:49;10.89;67.97
62464;SHT31;48512;48.552;9.380;2023-02-19T15:50:25;10.76;68.25
62464;SHT31;48512;48.552;9.380;2023-02-19T15:56:01;10.81;68.08
62464;SHT31;48512;48.552;9.380;2023-02-19T15:58:33;10.70;67.85
62464;SHT31;48512;48.552;9.380;2023-02-19T16:01:09;10.67;68.18
62464;SHT31;48512;48.552;9.380;2023-02-19T16:03:37;10.66;68.33
62464;SHT31;48512;48.552;9.380;2023-02-19T16:08:31;10.76;68.39
62464;SHT31;48512;48.552;9.380;2023-02-19T16:10:59;10.64;68.74
62464;SHT31;48512;48.552;9.380;2023-02-19T16:13:28;10.59;68.61
62464;SHT31;48512;48.552;9.380;2023-02-19T16:16:17;10.43;69.59
62464;SHT31;48512;48.552;9.380;2023-02-19T16:18:48;10.42;70.00
62464;SHT31;48512;48.552;9.380;2023-02-19T16:21:19;10.32;70.10
62464;SHT31;48512;48.552;9.380;2023-02-19T16:23:48;10.42;71.24
62464;SHT31;48512;48.552;9.380;2023-02-19T16:26:14;10.15;72.53
62464;SHT31;48512;48.552;9.380;2023-02-19T16:28:41;10.09;72.65
62464;SHT31;48512;48.552;9.380;2023-02-19T16:31:09;10.16;72.80
62464;SHT31;48512;48.552;9.380;2023-02-19T16:38:58;9.98;73.69
62464;SHT31;48512;48.552;9.380;2023-02-19T16:41:25;10.35;72.32
62464;SHT31;48512;48.552;9.380;2023-02-19T16:43:51;10.18;73.30
62464;SHT31;48512;48.552;9.380;2023-02-19T16:46:17;10.05;74.24
62464;SHT31;48512;48.552;9.380;2023-02-19T16:48:45;10.05;75.60
62464;SHT31;48512;48.552;9.380;2023-02-19T16:51:32;10.08;75.41
62464;SHT31;48512;48.552;9.380;2023-02-19T16:53:57;9.95;76.82
62464;SHT31;48512;48.552;9.380;2023-02-19T16:56:23;9.88;77.69
62464;SHT31;48512;48.552;9.380;2023-02-19T16:58:49;10.01;77.02
62464;SHT31;48512;48.552;9.380;2023-02-19T17:01:15;9.87;76.74
62464;SHT31;48512;48.552;9.380;2023-02-19T17:03:41;9.58;79.64
62464;SHT31;48512;48.552;9.380;2023-02-19T17:06:07;9.63;78.32
62464;SHT31;48512;48.552;9.380;2023-02-19T17:08:34;9.49;78.36
62464;SHT31;48512;48.552;9.380;2023-02-19T17:11:03;9.32;80.13
62464;SHT31;48512;48.552;9.380;2023-02-19T17:13:29;9.26;80.79
62464;SHT31;48512;48.552;9.380;2023-02-19T17:15:55;9.49;79.76
62464;SHT31;48512;48.552;9.380;2023-02-19T17:18:21;9.49;79.40
62464;SHT31;48512;48.552;9.380;2023-02-19T17:20:49;9.35;79.98
62464;SHT31;48512;48.552;9.380;2023-02-19T17:23:16;9.50;80.39
62464;SHT31;48512;48.552;9.380;2023-02-19T17:25:41;9.35;80.31
62464;SHT31;48512;48.552;9.380;2023-02-19T17:28:07;9.20;80.45
62464;SHT31;48512;48.552;9.380;2023-02-19T17:30:32;9.33;80.16
62464;SHT31;48512;48.552;9.380;2023-02-19T17:32:58;9.29;80.69
62464;SHT31;48512;48.552;9.380;2023-02-19T17:35:24;9.11;81.27
62464;SHT31;48512;48.552;9.380;2023-02-19T17:37:50;9.05;82.63
62464;SHT31;48512;48.552;9.380;2023-02-19T17:42:41;8.85;82.34
62464;SHT31;48512;48.552;9.380;2023-02-19T17:45:07;8.87;82.64
62464;SHT31;48512;48.552;9.380;2023-02-19T17:47:32;8.89;82.44
62464;SHT31;48512;48.552;9.380;2023-02-19T17:49:58;8.85;82.18
62464;SHT31;48512;48.552;9.380;2023-02-19T17:52:25;8.68;83.18
62464;SHT31;48512;48.552;9.380;2023-02-19T17:54:52;8.82;81.91
62464;SHT31;48512;48.552;9.380;2023-02-19T17:57:17;9.05;81.35
62464;SHT31;48512;48.552;9.380;2023-02-19T17:59:42;9.02;79.96
62464;SHT31;48512;48.552;9.380;2023-02-19T18:02:08;8.89;81.02
62464;SHT31;48512;48.552;9.380;2023-02-19T18:04:33;8.82;82.14
62464;SHT31;48512;48.552;9.380;2023-02-19T18:06:59;8.77;82.27
62464;SHT31;48512;48.552;9.380;2023-02-19T18:09:25;9.01;80.67
62464;SHT31;48512;48.552;9.380;2023-02-19T18:11:50;9.11;79.05
62464;SHT31;48512;48.552;9.380;2023-02-19T18:14:15;9.09;79.62
62464;SHT31;48512;48.552;9.380;2023-02-19T18:16:48;8.77;81.74
62464;SHT31;48512;48.552;9.380;2023-02-19T18:19:14;8.82;81.95
62464;SHT31;48512;48.552;9.380;2023-02-19T18:21:39;8.67;82.79
62464;SHT31;48512;48.552;9.380;2023-02-19T18:24:05;8.68;82.65
62464;SHT31;48512;48.552;9.380;2023-02-19T18:26:31;8.61;82.91
62464;SHT31;48512;48.552;9.380;2023-02-19T18:28:59;8.71;82.45
62464;SHT31;48512;48.552;9.380;2023-02-19T18:31:24;8.82;81.58
62464;SHT31;48512;48.552;9.380;2023-02-19T18:33:50;8.75;82.47
62464;SHT31;48512;48.552;9.380;2023-02-19T18:36:15;8.59;82.83
62464;SHT31;48512;48.552;9.380;2023-02-19T18:38:41;8.74;82.13
62464;SHT31;48512;48.552;9.380;2023-02-19T18:41:10;8.70;82.95
62464;SHT31;48512;48.552;9.380;2023-02-19T18:43:36;8.67;82.40
62464;SHT31;48512;48.552;9.380;2023-02-19T18:46:01;8.99;81.90
62464;SHT31;48512;48.552;9.380;2023-02-19T18:48:28;9.81;79.08
62464;SHT31;48512;48.552;9.380;2023-02-19T18:50:53;9.33;78.36
62464;SHT31;48512;48.552;9.380;2023-02-19T18:53:19;9.07;79.12
62464;SHT31;48512;48.552;9.380;2023-02-19T18:55:44;8.88;79.03